Sie sind vermutlich noch nicht im Forum angemeldet - Klicken Sie hier um sich kostenlos anzumelden  

Synchrondatenbank (von Arne Kaul) | Deutsche Synchronkartei | Seriensynchron - SeSyDaB | dubDB | Die vergessenen Filme || Datenschutz
Sie können sich hier anmelden
Dieses Forum hat 3.310 Themen
und zur Zeit 39.026 Beiträge
Sie haben keine Schreibrechte
 Spielfilme 1990 bis 2009  »Neues Thema erstellen«
Forum Information
   Betreff Absender Antworten Zugriffe Letzter Beitrag
Breaking the Waves (DK/NO/SE/FR/NL 1996) Silenzio 3 119 10.04.2018 01:22
Freundschaft, Liebe, Rache (Vento di mare) Gianfranco Mingozzi 1991 kogenta 0 89 10.04.2018 01:13
Lapitch, der kleine Schuhmacher (D/HR 1997) Edigrieg 5 171 08.04.2018 19:41
Power Rangers - Der Film (USA, 1995) hudemx 12 478 04.04.2018 17:46
Bube, Dame, Koenig grAS (Lock, stock and two smoking barrels, GB) rote Blume 13 1.363 04.04.2018 10:28
Hellraiser III: Hell on Earth (1992) WasGehtSieDasAn 11 658 30.03.2018 19:30
Mr. Jones (USA 1993) Silenzio 0 141 26.03.2018 22:24
Teuflisch (USA 2000) VanToby 3 180 26.03.2018 01:37
2 Tage in L.A. (USA 1996) Wilkins 0 143 25.03.2018 17:08
Barbie als Prinzessin und das Dorfmädchen Besetzungsliste Mew Mew 1 1.191 21.03.2018 21:41
Die Asche meiner Mutter (1999; DF: 2000) Frank Brenner 3 205 20.03.2018 20:14
Nightmare Lover (USA 1993) Silenzio 5 197 19.03.2018 02:09
Bernard & Bianca im Känguruland (1990) Edigrieg 3 312 17.03.2018 12:49
The Invincible Iron Man (2007) hudemx 1 309 16.03.2018 12:24
August (1995; DF: 1996) Frank Brenner 6 304 14.03.2018 16:30
Fires Within (USA 1991) Silenzio 0 127 13.03.2018 00:36
Die Borgia (2006) Torben 2 158 12.03.2018 23:32
Jeanne d'Arc - Die Frau des Jahrtausends (1999) Torben 3 255 12.03.2018 18:34
The Skulls 3, am Samstag 12.04. Das Auge 6 547 09.03.2018 16:14
Timber Falls (USA 2007) Mew Mew 4 556 05.03.2018 00:40
Meine ... und ich (3 Filme) VanToby 5 400 04.03.2018 22:52
Super Mario Bros. (1993) dlh 5 657 21.02.2018 15:37
Kikujiros Sommer (1999) dlh 2 263 19.02.2018 20:14
Das Rückgrat des Teufels (2001) Wilkins 2 216 18.02.2018 01:33
Cronos (1993) (DF: 1996) Wilkins 4 224 18.02.2018 01:18
Der Mann, der niemals starb (USA 1994) Silenzio 0 183 15.02.2018 02:02
Die Unglaublichen - The Incedible (1, 2) Scooby Doo 20 3.827 13.02.2018 19:57
Die Noorderlinger (Niederlande 1992) Silenzio 1 191 13.02.2018 06:46
Deep Impact (USA 1998) Silenzio 9 1.469 12.02.2018 17:01
Die nackte Kanone 33 1/3 (1994) Frank Brenner 6 631 05.02.2018 11:00
Die nackte Kanone 2 1/2 (1, 2) Dr Jones 15 2.113 28.01.2018 19:48
A Nightmare Before Christmas (1, 2) Buscemi 15 1.619 24.01.2018 13:52
Billy Madison - Ein Chaot zum Verlieben (1995) Schlitzi 11 929 20.01.2018 20:50
Happy Gilmore Schlitzi 6 652 20.01.2018 20:04
Happy End (2003) VanToby 3 358 17.01.2018 14:47
Tim Burton's Corpse Bride - Hochzeit mit einer Leiche (1, 2) Knew-King 21 2.799 17.01.2018 10:06
Die dunkle Macht der Leidenschaft (USA 1993) Silenzio 0 191 13.01.2018 16:22
Scary - Horrortrip in den Wahnsinn (1992) dlh 5 628 12.01.2018 09:38
Beavis und Butt-Head machen's in Amerika (1996) (1, 2, 3) Mücke (gelöscht) 41 3.501 12.01.2018 09:33
Oldboy Knew-King 6 925 10.01.2018 11:05
 Sprung Seite « zurück  1  2  3  4  5  6  7  8  9 - 83  weiter »

Farb-Legende: blau = Spekulation, orange = Trailer-Besetzung, grün = endgültige Besetzung, rot = Korrektur/Ergänzung zur endgültigen Besetzung

Wir lie... also, wir finden Synchron ganz in Ordnung.
Erreichbar unter
215072.homepagemodules.de -- forum.serien-synchron.de

Weitere Smileys auf www.smilie-harvester.de
Xobor Forum Software von Xobor | Forum, Fotos, Chat und mehr mit Xobor